ADDS METAR Data INFO
IDs: Format: Raw Decoded Include TAF

Data at: 1126 UTC 17 Jul 2018

KTVF 171056Z AUTO 36003KT 10SM CLR 10/08 A3017 RMK AO2 SLP220 T01000083
KTVF 170956Z AUTO 00000KT 10SM CLR 10/09 A3016 RMK AO2 SLP216 T01000089
KTVF 170856Z AUTO 00000KT 10SM CLR 11/09 A3016 RMK AO2 SLP216 T01060094 53008
KTVF 170756Z AUTO 05005KT 10SM CLR 12/11 A3014 RMK AO2 SLP209 T01220106
KTVF 170656Z AUTO 03005KT 10SM CLR 13/11 A3014 RMK AO2 SLP208 T01280106
KTVF 170556Z AUTO 02006KT 10SM CLR 14/11 A3014 RMK AO2 SLP207 T01390106 10211 20133 51010
KTVF 170456Z AUTO 00000KT 10SM CLR 14/12 A3013 RMK AO2 SLP206 T01440117 402170133
KTVF 170356Z AUTO 35003KT 10SM CLR 15/12 A3012 RMK AO2 SLP202 T01500117
KTVF 170256Z AUTO 33005KT 10SM CLR 16/12 A3011 RMK AO2 SLP197 T01560117 53009
KTVF 170156Z AUTO 33006KT 10SM CLR 18/12 A3009 RMK AO2 SLP190 T01830117
KTVF 170056Z AUTO 33007KT 10SM CLR 21/11 A3008 RMK AO2 SLP187 T02060106
KTVF 162356Z AUTO 34012KT 10SM CLR 21/11 A3008 RMK AO2 SLP187 T02110106 10217 20200 51000
KTVF 162256Z AUTO 34011KT 10SM SCT050 BKN060 22/11 A3008 RMK AO2 SLP187 T02170106
KTVF 162156Z AUTO 32010KT 10SM FEW049 BKN060 21/11 A3008 RMK AO2 SLP188 T02060106
KTVF 162056Z AUTO 33012KT 10SM BKN050 BKN060 21/11 A3008 RMK AO2 SLP187 T02110106 52003
KTVF 161956Z AUTO 34010KT 10SM FEW048 21/11 A3007 RMK AO2 SLP186 T02060106
KTVF 161856Z AUTO 33011KT 10SM SCT042 20/10 A3007 RMK AO2 SLP185 T02000100
KTVF 161756Z AUTO 33011G18KT 10SM SCT040 20/11 A3007 RMK AO2 SLP184 T02000106 10200 20144 51003
KTVF 161656Z AUTO 31012G16KT 10SM CLR 19/11 A3007 RMK AO2 SLP183 T01890106
KTVF 161556Z AUTO 30010KT 10SM CLR 18/10 A3007 RMK AO2 SLP183 T01780100
KTVF 161356Z AUTO 33014KT 10SM BKN090 16/10 A3004 RMK AO2 SLP175 T01610100
KTVF 161256Z AUTO 34013KT 10SM CLR 16/09 A3003 RMK AO2 SLP169 T01560094
KTVF 161156Z AUTO 31009KT 10SM CLR 14/10 A3002 RMK AO2 SLP164 T01440100 10156 20133 53013
KTVF 161056Z AUTO 30008KT 10SM CLR 13/11 A3000 RMK AO2 SLP159 T01330106
KTVF 160956Z AUTO 28008KT 10SM CLR 14/11 A2998 RMK AO2 SLP152 T01390111
KTVF 160856Z AUTO 27008KT 10SM CLR 14/11 A2998 RMK AO2 SLP151 T01440111 56001
KTVF 160756Z AUTO 25007KT 10SM CLR 14/11 A2998 RMK AO2 SLP152 T01390111
KTVF 160656Z AUTO 23007KT 10SM CLR 15/11 A2998 RMK AO2 SLP152 T01500111
KTVF 160556Z AUTO 22009KT 10SM CLR 15/11 A2998 RMK AO2 SLP152 T01500111 10233 20150 50000
KTVF 160456Z AUTO 22008KT 10SM CLR 15/12 A2998 RMK AO2 SLP155 T01500117 402390150
KTVF 160356Z AUTO 23006KT 10SM CLR 16/12 A2998 RMK AO2 SLP154 T01560117
KTVF 160256Z AUTO 24006KT 10SM CLR 18/13 A2998 RMK AO2 SLP152 T01780128 53002
KTVF 160156Z AUTO 25007KT 10SM CLR 19/13 A2997 RMK AO2 SLP150 T01940133
KTVF 160056Z AUTO 27011KT 10SM CLR 22/12 A2997 RMK AO2 SLP148 T02220122
KTVF 152356Z AUTO 26011KT 10SM FEW055 23/12 A2997 RMK AO2 SLP148 T02330122 10239 20206 56013